Time;durP1;ratioP1;P1;durP2;ratioP2;P2;SDS_P1;SDS_P2;PMS_P1;PMS_P2;Temp;Humidity;BMP_temperature;BMP_pressure;BME280_temperature;BME280_humidity;BME280_pressure;Samples;Min_cycle;Max_cycle;Signal;HPM_P1;HPM_P2
2021/08/04 00:01:20;;;;;;;4.93;2.22;;;15.80;99.90;;;;;;5005825;28;20207;-96
2021/08/04 00:03:53;;;;;;;3.95;2.58;;;15.80;99.90;;;;;;5007939;28;20204;-96
2021/08/04 00:06:25;;;;;;;3.83;2.35;;;15.80;99.90;;;;;;5008358;28;20180;-96
2021/08/04 00:09:04;;;;;;;3.90;2.55;;;15.70;99.90;;;;;;5006885;28;20176;-96
2021/08/04 00:11:40;;;;;;;3.08;2.28;;;15.70;99.90;;;;;;5007331;28;20206;-96
2021/08/04 00:14:16;;;;;;;5.18;2.25;;;15.70;99.90;;;;;;5007845;28;20199;-96
2021/08/04 00:16:52;;;;;;;3.95;2.40;;;15.70;99.90;;;;;;5007972;28;20171;-95
2021/08/04 00:19:19;;;;;;;4.00;2.28;;;15.70;99.90;;;;;;5008358;28;20171;-96
2021/08/04 00:22:17;;;;;;;2.88;2.25;;;15.70;99.90;;;;;;5009158;28;20176;-96
2021/08/04 00:24:44;;;;;;;5.68;3.08;;;15.80;99.90;;;;;;5009310;28;20200;-96
2021/08/04 00:27:10;;;;;;;4.30;2.88;;;15.80;99.90;;;;;;5008636;28;20187;-96
2021/08/04 00:29:36;;;;;;;3.70;2.85;;;15.80;99.90;;;;;;5007513;28;20196;-96
2021/08/04 00:32:05;;;;;;;5.47;2.75;;;15.80;99.90;;;;;;5005910;28;20227;-96
2021/08/04 00:34:36;;;;;;;2.78;2.35;;;15.70;99.90;;;;;;5003900;28;20207;-96
2021/08/04 00:37:05;;;;;;;4.05;2.50;;;15.70;99.90;;;;;;5007095;28;20191;-96
2021/08/04 00:39:42;;;;;;;3.05;2.10;;;15.80;99.90;;;;;;5005823;28;20230;-96
2021/08/04 00:42:18;;;;;;;4.97;2.63;;;15.70;99.90;;;;;;5006295;28;20172;-96
2021/08/04 00:44:49;;;;;;;3.33;2.50;;;15.80;99.90;;;;;;5005829;28;20226;-96
2021/08/04 00:47:17;;;;;;;3.67;2.08;;;15.80;99.90;;;;;;5005160;28;20192;-95
2021/08/04 00:49:45;;;;;;;3.15;2.08;;;15.90;99.90;;;;;;5005261;28;20255;-96
2021/08/04 00:52:27;;;;;;;4.57;2.47;;;15.90;99.90;;;;;;5003985;28;20180;-96
2021/08/04 00:54:55;;;;;;;2.90;2.30;;;15.80;99.90;;;;;;5003582;28;20299;-96
2021/08/04 00:57:29;;;;;;;4.85;2.55;;;15.80;99.90;;;;;;5003879;28;20177;-95
2021/08/04 00:59:56;;;;;;;4.18;2.35;;;15.80;99.90;;;;;;5003263;28;20230;-96
2021/08/04 01:02:41;;;;;;;3.78;2.30;;;15.80;99.90;;;;;;5004414;28;20176;-96
2021/08/04 01:05:45;;;;;;;3.65;2.53;;;15.70;99.90;;;;;;5005024;28;20315;-96
2021/08/04 01:08:44;;;;;;;5.18;2.50;;;15.70;99.90;;;;;;5343058;22;20235;-92
2021/08/04 01:11:12;;;;;;;3.38;2.40;;;15.60;99.90;;;;;;5018323;28;20191;-91
2021/08/04 01:13:46;;;;;;;2.95;2.38;;;15.60;99.90;;;;;;5018855;28;20184;-91
2021/08/04 01:16:36;;;;;;;2.72;2.50;;;15.60;99.90;;;;;;5018637;28;20669;-92
2021/08/04 01:19:22;;;;;;;5.00;2.47;;;15.50;99.90;;;;;;5018711;28;20192;-92
2021/08/04 01:22:38;;;;;;;3.10;2.20;;;15.50;99.90;;;;;;5017883;28;20576;-92
2021/08/04 01:25:31;;;;;;;2.85;2.50;;;15.50;99.90;;;;;;4999036;28;20172;-92
2021/08/04 01:28:40;;;;;;;3.65;2.30;;;15.50;99.90;;;;;;5017024;28;20191;-92
2021/08/04 01:31:15;;;;;;;2.95;2.42;;;15.50;99.90;;;;;;5016229;28;20247;-92
2021/08/04 01:33:44;;;;;;;5.47;2.92;;;15.60;99.90;;;;;;5016938;28;20171;-92
2021/08/04 01:36:11;;;;;;;5.25;2.35;;;15.60;99.90;;;;;;5016606;28;20206;-92
2021/08/04 01:38:38;;;;;;;3.55;2.40;;;15.60;99.90;;;;;;5016680;28;20183;-92
2021/08/04 01:41:15;;;;;;;4.32;2.50;;;15.60;99.90;;;;;;5016390;28;20218;-92
2021/08/04 01:43:42;;;;;;;3.75;2.55;;;15.60;99.90;;;;;;5017086;28;20164;-92
2021/08/04 01:46:15;;;;;;;6.20;2.22;;;15.60;99.90;;;;;;5015967;28;20227;-92
2021/08/04 01:48:44;;;;;;;9.55;2.55;;;15.60;99.90;;;;;;5006356;28;20297;-92
2021/08/04 01:51:28;;;;;;;6.32;2.55;;;15.50;99.90;;;;;;4989134;22;20236;-95
2021/08/04 01:53:57;;;;;;;2.78;2.47;;;15.50;99.90;;;;;;4980347;28;20251;-94
2021/08/04 01:56:26;;;;;;;5.18;2.70;;;15.50;99.90;;;;;;4980871;28;20197;-94
2021/08/04 01:58:53;;;;;;;3.15;2.70;;;15.50;99.90;;;;;;4980571;28;20173;-94
2021/08/04 02:04:05;;;;;;;2.70;2.30;;;15.40;99.90;;;;;;4980426;28;20650;-95
2021/08/04 02:06:58;;;;;;;4.88;2.40;;;15.30;99.90;;;;;;4980376;28;20180;-94
2021/08/04 02:09:47;;;;;;;3.67;2.40;;;15.30;99.90;;;;;;4980281;28;20180;-94
2021/08/04 02:12:13;;;;;;;4.53;2.50;;;15.30;99.90;;;;;;4980005;28;20169;-95
2021/08/04 02:14:39;;;;;;;3.78;2.63;;;15.30;99.90;;;;;;4980659;28;20270;-93
2021/08/04 02:17:44;;;;;;;3.25;2.58;;;15.30;99.90;;;;;;4980911;28;20169;-94
2021/08/04 02:20:27;;;;;;;2.80;2.33;;;15.30;99.90;;;;;;4980570;28;20187;-95
2021/08/04 02:23:19;;;;;;;4.43;2.70;;;15.30;99.90;;;;;;4980168;28;20177;-96
2021/08/04 02:26:05;;;;;;;3.05;2.40;;;15.30;99.90;;;;;;4980653;28;20299;-95
2021/08/04 02:28:42;;;;;;;3.65;2.40;;;15.30;99.90;;;;;;4980121;28;20176;-94
2021/08/04 02:31:18;;;;;;;2.75;2.33;;;15.40;99.90;;;;;;4979331;28;20191;-94
2021/08/04 02:33:45;;;;;;;4.53;2.67;;;15.30;99.90;;;;;;4979807;28;20184;-95
2021/08/04 02:36:13;;;;;;;2.97;2.67;;;15.30;99.90;;;;;;4980205;28;20200;-94
2021/08/04 02:38:40;;;;;;;4.70;2.63;;;15.30;99.90;;;;;;4980045;28;20192;-93
2021/08/04 02:41:13;;;;;;;3.70;2.20;;;15.30;99.90;;;;;;4980752;28;20223;-93
2021/08/04 02:43:52;;;;;;;4.55;2.67;;;15.20;99.90;;;;;;4980251;28;20173;-94
2021/08/04 02:46:29;;;;;;;5.35;2.85;;;15.20;99.90;;;;;;4979955;28;20196;-94
2021/08/04 02:48:58;;;;;;;4.63;2.35;;;15.30;99.90;;;;;;4979920;28;20172;-95
2021/08/04 02:51:27;;;;;;;4.65;2.30;;;15.30;99.90;;;;;;4980344;28;20228;-95
2021/08/04 02:53:59;;;;;;;3.10;2.50;;;15.20;99.90;;;;;;4979652;28;20196;-93
2021/08/04 02:56:35;;;;;;;3.22;2.30;;;15.20;99.90;;;;;;4979096;28;20219;-94
2021/08/04 02:59:11;;;;;;;5.47;2.65;;;15.20;99.90;;;;;;4979471;28;20597;-94
2021/08/04 03:01:37;;;;;;;4.43;2.50;;;15.20;99.90;;;;;;4979721;28;20176;-94
2021/08/04 03:04:10;;;;;;;4.30;2.63;;;15.10;99.90;;;;;;4979677;28;20201;-94
2021/08/04 03:06:36;;;;;;;6.00;2.60;;;15.10;99.90;;;;;;4979982;28;20177;-95
2021/08/04 03:09:02;;;;;;;4.32;2.80;;;15.10;99.90;;;;;;4979718;28;20188;-94
2021/08/04 03:11:30;;;;;;;5.53;2.95;;;15.00;99.90;;;;;;4979566;28;20176;-94
2021/08/04 03:13:57;;;;;;;4.18;2.80;;;15.10;99.90;;;;;;4980040;28;20254;-94
2021/08/04 03:16:26;;;;;;;2.85;2.53;;;15.10;99.90;;;;;;4979803;28;20219;-94
2021/08/04 03:18:53;;;;;;;4.47;2.53;;;15.10;99.90;;;;;;4979445;28;20177;-94
2021/08/04 03:21:26;;;;;;;3.05;2.55;;;15.10;99.90;;;;;;4979285;28;20260;-94
2021/08/04 03:23:54;;;;;;;2.92;2.42;;;15.10;99.90;;;;;;4979180;28;20200;-96
2021/08/04 03:26:27;;;;;;;6.15;2.63;;;15.20;99.90;;;;;;4978607;28;20208;-95
2021/08/04 03:28:56;;;;;;;2.55;2.35;;;15.20;99.90;;;;;;4978939;28;20173;-93
2021/08/04 03:31:25;;;;;;;3.65;2.40;;;15.20;99.90;;;;;;4979198;28;20181;-94
2021/08/04 03:34:01;;;;;;;4.15;2.40;;;15.10;99.90;;;;;;4979861;28;20208;-94
2021/08/04 03:36:28;;;;;;;2.70;2.45;;;15.00;99.90;;;;;;4980415;28;20207;-93
2021/08/04 03:38:57;;;;;;;5.68;2.67;;;15.00;99.90;;;;;;4979878;28;20177;-95
2021/08/04 03:41:27;;;;;;;6.05;2.90;;;15.00;99.90;;;;;;4980128;28;20173;-93
2021/08/04 03:44:01;;;;;;;3.33;2.25;;;15.00;99.90;;;;;;4979559;28;20212;-94
2021/08/04 03:46:27;;;;;;;3.42;2.50;;;15.00;99.90;;;;;;4979716;28;20177;-94
2021/08/04 03:48:55;;;;;;;4.95;2.90;;;15.10;99.90;;;;;;4979660;28;20180;-93
2021/08/04 03:51:31;;;;;;;5.13;2.90;;;15.00;99.90;;;;;;4979762;28;20216;-94
2021/08/04 03:54:06;;;;;;;4.30;2.75;;;15.00;99.90;;;;;;4980361;28;20204;-94
2021/08/04 03:56:33;;;;;;;4.75;3.05;;;14.90;99.90;;;;;;4979249;28;20208;-94
2021/08/04 03:59:02;;;;;;;4.25;3.15;;;15.00;99.90;;;;;;4979853;28;20189;-94
2021/08/04 04:01:28;;;;;;;4.72;2.83;;;15.00;99.90;;;;;;4979119;28;20169;-95
2021/08/04 04:04:12;;;;;;;5.80;3.20;;;15.00;99.90;;;;;;4979342;28;20658;-94
2021/08/04 04:06:46;;;;;;;4.63;2.95;;;15.00;99.90;;;;;;4978759;28;20232;-94
2021/08/04 04:09:12;;;;;;;3.10;2.80;;;15.10;99.90;;;;;;4979569;28;20658;-93
2021/08/04 04:11:44;;;;;;;3.50;2.67;;;15.00;99.90;;;;;;4979628;28;20173;-94
2021/08/04 04:14:14;;;;;;;5.35;3.13;;;15.00;99.90;;;;;;4996154;28;20208;-94
2021/08/04 04:16:39;;;;;;;5.03;3.17;;;15.00;99.90;;;;;;4979491;28;20177;-94
2021/08/04 04:19:08;;;;;;;6.78;3.60;;;14.90;99.90;;;;;;4979183;28;20637;-94
2021/08/04 04:21:35;;;;;;;4.35;3.10;;;14.90;99.90;;;;;;4978570;28;20173;-93
2021/08/04 04:24:06;;;;;;;3.38;3.05;;;14.90;99.90;;;;;;4985229;28;20204;-94
2021/08/04 04:26:31;;;;;;;6.63;3.13;;;15.00;99.90;;;;;;4986780;28;20200;-93
2021/08/04 04:28:59;;;;;;;3.65;3.08;;;15.00;99.90;;;;;;4986926;28;20177;-96
2021/08/04 04:31:27;;;;;;;8.77;3.17;;;15.00;99.90;;;;;;4985017;28;20177;-95
2021/08/04 04:33:55;;;;;;;4.97;3.20;;;15.10;99.90;;;;;;4979638;28;20243;-94
2021/08/04 04:36:31;;;;;;;5.10;3.25;;;15.10;99.90;;;;;;4979343;28;20204;-93
2021/08/04 04:39:03;;;;;;;7.18;3.03;;;15.10;99.90;;;;;;4979849;28;20219;-96
2021/08/04 04:41:33;;;;;;;3.08;2.78;;;15.10;99.90;;;;;;4979046;28;20177;-94
2021/08/04 04:44:04;;;;;;;3.10;2.70;;;15.20;99.90;;;;;;4980719;28;20282;-95
2021/08/04 04:46:31;;;;;;;4.53;3.00;;;15.20;99.90;;;;;;4983309;28;20199;-94
2021/08/04 04:48:57;;;;;;;3.00;2.70;;;15.20;99.90;;;;;;4982548;28;20611;-94
2021/08/04 04:51:26;;;;;;;4.90;2.97;;;15.30;99.90;;;;;;4982541;28;20255;-94
2021/08/04 04:53:54;;;;;;;3.22;2.92;;;15.30;99.90;;;;;;4983641;28;20295;-94
2021/08/04 04:56:23;;;;;;;4.60;3.00;;;15.20;99.90;;;;;;4983366;28;20205;-96
2021/08/04 04:58:49;;;;;;;7.75;2.95;;;15.30;99.90;;;;;;4982719;28;20177;-95
2021/08/04 05:01:15;;;;;;;3.97;2.90;;;15.30;99.90;;;;;;4982725;28;20172;-94
2021/08/04 05:03:47;;;;;;;4.75;2.95;;;15.30;99.90;;;;;;4981172;28;20257;-94
2021/08/04 05:06:17;;;;;;;5.28;3.10;;;15.40;99.90;;;;;;4981516;28;20177;-95
2021/08/04 05:08:43;;;;;;;4.78;3.20;;;15.40;99.90;;;;;;4981697;28;20173;-94
2021/08/04 05:11:09;;;;;;;5.50;2.85;;;15.40;99.90;;;;;;4981769;28;20196;-94
2021/08/04 05:14:05;;;;;;;4.10;2.67;;;15.40;99.90;;;;;;4981632;28;20180;-94
2021/08/04 05:16:42;;;;;;;7.57;3.35;;;15.50;99.90;;;;;;4981391;28;20309;-95
2021/08/04 05:19:11;;;;;;;4.43;3.08;;;15.50;99.90;;;;;;4980932;28;20176;-95
2021/08/04 05:21:39;;;;;;;4.00;3.10;;;15.50;99.90;;;;;;4980849;28;20176;-95
2021/08/04 05:24:07;;;;;;;8.38;3.40;;;15.50;99.90;;;;;;4981016;28;20200;-95
2021/08/04 05:26:41;;;;;;;6.60;3.00;;;15.50;99.90;;;;;;4981585;28;20635;-93
2021/08/04 05:29:07;;;;;;;3.65;3.13;;;15.50;99.90;;;;;;4981261;28;20271;-93
2021/08/04 05:31:54;;;;;;;4.10;3.35;;;15.50;99.90;;;;;;4980613;28;20598;-93
2021/08/04 05:34:27;;;;;;;3.60;2.97;;;15.60;99.90;;;;;;4980016;28;20200;-94
2021/08/04 05:36:54;;;;;;;7.30;3.80;;;15.60;99.90;;;;;;4980655;28;20177;-96
2021/08/04 05:39:21;;;;;;;5.22;3.58;;;15.60;99.90;;;;;;4997950;28;20188;-95
2021/08/04 05:41:48;;;;;;;5.00;3.53;;;15.60;99.90;;;;;;4981870;28;20176;-95
2021/08/04 05:44:14;;;;;;;7.38;3.42;;;15.60;99.90;;;;;;4982204;28;20196;-94
2021/08/04 05:46:40;;;;;;;4.05;2.90;;;15.70;99.90;;;;;;4982335;28;20181;-95
2021/08/04 05:49:08;;;;;;;5.38;3.35;;;15.70;99.90;;;;;;4982101;28;20260;-95
2021/08/04 05:51:35;;;;;;;5.78;3.20;;;15.80;99.90;;;;;;4989903;28;20220;-95
2021/08/04 05:54:36;;;;;;;4.90;3.05;;;15.90;99.90;;;;;;4987587;28;20208;-94
2021/08/04 05:57:06;;;;;;;3.50;3.20;;;16.00;99.90;;;;;;4983273;28;20252;-95
2021/08/04 05:59:35;;;;;;;5.65;3.67;;;16.10;99.90;;;;;;4983993;28;20177;-95
2021/08/04 06:02:01;;;;;;;5.28;3.33;;;16.20;99.90;;;;;;4981871;28;20177;-95
2021/08/04 06:04:34;;;;;;;3.70;3.40;;;16.20;99.90;;;;;;4980983;28;20677;-94
2021/08/04 06:07:03;;;;;;;5.13;3.30;;;16.20;99.90;;;;;;4981371;28;20180;-94
2021/08/04 06:09:31;;;;;;;9.90;4.10;;;16.30;99.90;;;;;;4980821;28;20181;-95
2021/08/04 06:11:57;;;;;;;4.10;3.17;;;16.40;99.90;;;;;;4980281;28;20188;-95
2021/08/04 06:14:27;;;;;;;5.55;3.53;;;16.40;99.90;;;;;;4979568;28;20200;-95
2021/08/04 06:16:54;;;;;;;5.22;3.35;;;16.50;99.90;;;;;;4980691;28;20231;-95
2021/08/04 06:19:20;;;;;;;5.10;3.47;;;16.60;99.90;;;;;;4981673;28;20180;-94
2021/08/04 06:21:46;;;;;;;4.78;3.58;;;16.70;99.90;;;;;;4980978;28;20176;-95
2021/08/04 06:24:22;;;;;;;6.68;3.72;;;16.70;99.90;;;;;;4981171;28;20197;-94
2021/08/04 06:26:48;;;;;;;7.75;3.97;;;16.80;99.90;;;;;;4981076;28;20262;-94
2021/08/04 06:29:30;;;;;;;6.00;3.88;;;16.90;99.90;;;;;;4980940;28;20169;-95
2021/08/04 06:32:31;;;;;;;4.40;3.10;;;17.00;99.90;;;;;;4981782;28;20200;-96
2021/08/04 06:35:00;;;;;;;7.70;3.40;;;17.10;99.90;;;;;;4977603;28;20208;-96
2021/08/04 06:37:26;;;;;;;5.45;3.78;;;17.10;99.90;;;;;;4980409;28;20181;-96
2021/08/04 06:39:53;;;;;;;4.88;3.63;;;17.10;99.90;;;;;;4981528;28;20643;-94
2021/08/04 06:42:19;;;;;;;5.38;3.72;;;17.20;99.90;;;;;;4980757;28;20181;-96
2021/08/04 06:44:54;;;;;;;5.30;4.28;;;17.30;99.90;;;;;;4981089;28;20207;-95
2021/08/04 06:47:26;;;;;;;5.32;4.25;;;17.30;99.90;;;;;;4979871;28;20184;-95
2021/08/04 06:49:59;;;;;;;6.30;4.07;;;17.30;99.90;;;;;;4983893;28;20184;-95
2021/08/04 06:52:27;;;;;;;3.95;3.50;;;17.40;99.90;;;;;;4977640;28;20625;-95
2021/08/04 06:55:04;;;;;;;5.90;3.85;;;17.50;99.90;;;;;;4978002;28;20218;-96
2021/08/04 06:57:30;;;;;;;6.55;4.32;;;17.60;99.90;;;;;;4978637;28;20203;-96
2021/08/04 07:00:02;;;;;;;3.40;3.10;;;17.60;99.90;;;;;;4978104;28;20188;-95
2021/08/04 07:02:49;;;;;;;9.32;3.60;;;17.70;99.90;;;;;;4976493;28;20626;-94
2021/08/04 07:05:39;;;;;;;9.02;3.33;;;17.80;99.90;;;;;;4975148;28;20207;-96
2021/08/04 07:08:21;;;;;;;5.22;3.20;;;17.80;99.90;;;;;;4974984;28;20188;-95
2021/08/04 07:11:03;;;;;;;9.38;3.70;;;17.80;99.90;;;;;;4976380;28;20555;-95
2021/08/04 07:13:34;;;;;;;5.82;3.58;;;17.90;99.90;;;;;;4974976;28;20184;-96
2021/08/04 07:16:02;;;;;;;7.28;3.53;;;18.00;99.90;;;;;;4975163;28;20195;-93
2021/08/04 07:18:30;;;;;;;6.63;3.85;;;18.00;99.90;;;;;;4980231;28;20171;-96
2021/08/04 07:20:57;;;;;;;4.55;3.40;;;18.10;99.90;;;;;;4981465;28;20172;-96
2021/08/04 07:23:23;;;;;;;7.40;3.88;;;18.10;99.90;;;;;;4975845;28;20176;-95
2021/08/04 07:26:05;;;;;;;7.80;3.55;;;18.20;99.90;;;;;;4975895;28;20204;-95
2021/08/04 07:29:24;;;;;;;6.72;3.10;;;18.20;99.90;;;;;;4975636;28;20267;-96
2021/08/04 07:31:52;;;;;;;4.43;2.80;;;18.30;99.90;;;;;;4974813;28;20181;-95
2021/08/04 07:34:40;;;;;;;5.70;3.13;;;18.30;99.90;;;;;;4975024;28;20207;-95
2021/08/04 07:37:18;;;;;;;4.90;3.00;;;18.40;99.90;;;;;;4974798;28;20191;-94
2021/08/04 07:40:04;;;;;;;3.50;2.90;;;18.50;99.90;;;;;;4974595;28;20319;-95
2021/08/04 07:42:58;;;;;;;4.30;3.00;;;18.50;99.90;;;;;;4974889;28;20176;-95
2021/08/04 07:45:24;;;;;;;4.43;2.97;;;18.50;99.90;;;;;;4974266;28;20192;-95
2021/08/04 07:47:57;;;;;;;6.10;3.22;;;18.60;99.90;;;;;;4974513;28;20187;-95
2021/08/04 07:50:25;;;;;;;5.15;3.17;;;18.70;99.90;;;;;;4973802;28;20238;-95
2021/08/04 07:53:09;;;;;;;4.47;2.63;;;18.70;99.90;;;;;;4962491;28;20636;-94
2021/08/04 07:55:42;;;;;;;4.32;3.10;;;18.90;99.90;;;;;;4964144;28;20686;-95
2021/08/04 07:58:10;;;;;;;5.45;3.20;;;19.00;99.90;;;;;;4966386;28;20235;-95
2021/08/04 08:00:37;;;;;;;6.30;3.88;;;19.10;99.90;;;;;;4965991;28;20231;-94
2021/08/04 08:03:09;;;;;;;6.30;4.35;;;19.20;99.90;;;;;;4973104;28;20238;-95
2021/08/04 08:05:35;;;;;;;4.88;3.65;;;19.40;99.90;;;;;;4937613;28;20712;-95
2021/08/04 08:08:30;;;;;;;5.38;3.28;;;19.40;99.90;;;;;;4973053;28;20176;-94
2021/08/04 08:10:57;;;;;;;5.20;3.88;;;19.50;99.90;;;;;;4973215;28;20157;-94
2021/08/04 08:13:23;;;;;;;6.65;3.33;;;19.60;99.90;;;;;;4973422;28;20203;-95
2021/08/04 08:15:53;;;;;;;5.30;3.10;;;19.60;99.90;;;;;;4973554;28;20204;-94
2021/08/04 08:18:19;;;;;;;6.25;3.40;;;19.70;99.90;;;;;;4966600;28;20212;-94
2021/08/04 08:20:45;;;;;;;5.35;2.90;;;19.70;99.90;;;;;;4978194;28;20221;-95
2021/08/04 08:23:12;;;;;;;3.83;2.30;;;19.70;99.90;;;;;;4970983;28;20223;-95
2021/08/04 08:25:42;;;;;;;4.93;2.60;;;19.80;99.90;;;;;;4977667;28;20200;-94
2021/08/04 08:28:17;;;;;;;3.00;2.30;;;19.80;99.90;;;;;;4977097;28;20165;-96
2021/08/04 08:30:44;;;;;;;4.32;2.70;;;19.90;99.90;;;;;;4967943;28;20281;-94
2021/08/04 08:33:17;;;;;;;5.28;2.70;;;19.90;99.90;;;;;;4976753;28;20176;-96
2021/08/04 08:35:43;;;;;;;5.18;3.05;;;20.00;99.90;;;;;;4976459;28;20220;-95
2021/08/04 08:38:10;;;;;;;2.75;2.42;;;20.00;99.90;;;;;;4976994;28;20180;-95
2021/08/04 08:40:46;;;;;;;4.55;3.10;;;20.00;99.90;;;;;;4977658;28;20665;-96
2021/08/04 08:43:17;;;;;;;3.72;2.40;;;20.00;99.90;;;;;;4968660;28;20231;-95
2021/08/04 08:45:49;;;;;;;4.45;3.20;;;20.10;99.90;;;;;;4993433;28;20204;-96
2021/08/04 08:48:22;;;;;;;4.80;2.70;;;20.00;99.90;;;;;;4978473;28;20700;-96
2021/08/04 08:50:57;;;;;;;4.65;2.47;;;20.00;99.90;;;;;;4977007;28;20704;-95
2021/08/04 08:53:38;;;;;;;2.95;2.50;;;20.10;99.90;;;;;;4976441;28;20228;-95
2021/08/04 08:56:10;;;;;;;5.65;3.15;;;20.10;99.90;;;;;;4966025;28;20318;-95
2021/08/04 08:58:37;;;;;;;5.75;2.95;;;20.20;99.90;;;;;;4977179;28;20196;-95
2021/08/04 09:01:03;;;;;;;5.47;3.10;;;20.20;99.90;;;;;;4976695;28;20169;-95
2021/08/04 09:03:29;;;;;;;3.67;2.90;;;20.20;99.90;;;;;;4977289;28;20181;-95
2021/08/04 09:06:04;;;;;;;4.63;3.30;;;20.30;99.90;;;;;;4978423;28;20173;-95
2021/08/04 09:08:35;;;;;;;4.13;3.47;;;20.30;99.90;;;;;;4969253;28;20241;-95
2021/08/04 09:11:20;;;;;;;3.92;2.67;;;20.30;99.90;;;;;;4976367;28;20169;-96
2021/08/04 09:13:52;;;;;;;3.17;2.83;;;20.30;99.90;;;;;;4975759;28;20207;-96
2021/08/04 09:16:20;;;;;;;5.20;3.20;;;20.30;99.90;;;;;;4975379;28;20195;-95
2021/08/04 09:18:54;;;;;;;3.97;2.65;;;20.40;99.90;;;;;;4976847;28;20165;-94
2021/08/04 09:21:20;;;;;;;3.13;2.60;;;20.50;99.90;;;;;;4967490;28;20317;-94
2021/08/04 09:23:49;;;;;;;5.65;3.13;;;20.50;99.90;;;;;;4976281;28;20200;-94
2021/08/04 09:26:23;;;;;;;3.53;2.42;;;20.60;99.90;;;;;;4977053;28;20199;-94
2021/08/04 09:29:16;;;;;;;3.47;3.17;;;20.70;99.90;;;;;;4975619;28;20176;-94
2021/08/04 09:31:51;;;;;;;4.35;2.75;;;20.70;99.90;;;;;;4976081;28;20188;-95
2021/08/04 09:34:48;;;;;;;6.93;3.03;;;20.80;99.90;;;;;;4951744;28;20236;-96
2021/08/04 09:37:20;;;;;;;3.35;2.90;;;20.80;99.90;;;;;;4976447;28;20172;-96
2021/08/04 09:39:54;;;;;;;3.08;2.78;;;20.80;99.90;;;;;;4968519;28;20235;-95
2021/08/04 09:42:52;;;;;;;4.35;2.80;;;20.90;99.90;;;;;;4977237;28;20541;-96
2021/08/04 09:45:47;;;;;;;4.47;2.75;;;20.80;99.90;;;;;;4969510;28;20238;-95
2021/08/04 09:48:19;;;;;;;3.15;2.67;;;20.80;99.90;;;;;;4977588;28;20243;-96
2021/08/04 09:50:56;;;;;;;3.85;2.88;;;20.80;99.90;;;;;;4975058;28;20835;-96
2021/08/04 09:53:49;;;;;;;5.03;2.58;;;20.80;99.90;;;;;;4975895;28;20220;-95
2021/08/04 09:56:22;;;;;;;5.78;2.85;;;20.80;99.90;;;;;;4976016;28;20235;-96
2021/08/04 09:58:53;;;;;;;2.88;2.58;;;20.80;99.90;;;;;;4975844;28;20542;-95
2021/08/04 10:01:38;;;;;;;2.83;2.08;;;20.70;99.90;;;;;;4977529;28;20172;-92
2021/08/04 10:04:14;;;;;;;3.30;2.00;;;20.70;99.90;;;;;;4969027;28;20219;-95
2021/08/04 10:06:43;;;;;;;4.15;2.40;;;20.60;99.90;;;;;;4975777;28;20195;-94
2021/08/04 10:09:13;;;;;;;3.10;2.20;;;20.60;99.90;;;;;;4976978;28;20168;-93
2021/08/04 10:11:51;;;;;;;3.65;1.92;;;20.60;99.90;;;;;;4978435;28;20613;-95
2021/08/04 10:14:18;;;;;;;3.30;2.38;;;20.60;99.90;;;;;;4960790;29;20205;-94
2021/08/04 10:16:48;;;;;;;3.92;2.17;;;20.60;99.90;;;;;;4963305;29;20295;-95
2021/08/04 10:19:16;;;;;;;5.05;2.40;;;20.60;99.90;;;;;;4959640;29;20177;-95
2021/08/04 10:21:47;;;;;;;3.42;2.30;;;20.60;99.90;;;;;;4974188;28;20188;-95
2021/08/04 10:24:13;;;;;;;3.58;2.35;;;20.60;99.90;;;;;;4981392;28;20568;-94
2021/08/04 10:26:40;;;;;;;2.95;2.30;;;20.70;99.90;;;;;;4980267;28;20165;-94
2021/08/04 10:29:08;;;;;;;2.90;2.00;;;20.70;99.90;;;;;;4978940;28;20227;-94
2021/08/04 10:31:35;;;;;;;2.80;2.20;;;20.80;99.90;;;;;;4985643;28;20674;-95
2021/08/04 10:34:04;;;;;;;6.13;2.50;;;20.80;99.90;;;;;;4985197;28;20211;-93
2021/08/04 10:36:36;;;;;;;4.07;2.30;;;20.90;99.90;;;;;;4973147;28;20231;-95
2021/08/04 10:39:24;;;;;;;3.63;2.00;;;20.90;99.90;;;;;;4972634;28;20228;-93
2021/08/04 10:42:09;;;;;;;4.45;2.33;;;21.10;99.90;;;;;;4969427;28;20307;-95
2021/08/04 10:44:38;;;;;;;2.90;2.05;;;21.40;99.90;;;;;;4953784;28;20263;-95
2021/08/04 10:47:06;;;;;;;4.43;2.10;;;21.50;99.90;;;;;;4979993;28;20188;-95
2021/08/04 10:49:36;;;;;;;4.05;1.92;;;21.50;99.90;;;;;;4972797;28;20227;-96
2021/08/04 10:52:04;;;;;;;3.20;2.15;;;21.50;99.90;;;;;;4977071;28;20220;-96
2021/08/04 10:55:07;;;;;;;1.75;1.60;;;21.30;99.80;;;;;;4968519;28;20232;-94
2021/08/04 10:58:05;;;;;;;2.50;1.80;;;21.40;99.80;;;;;;4960471;28;20378;-95
2021/08/04 11:00:34;;;;;;;3.15;1.90;;;21.50;99.90;;;;;;4975589;28;20184;-94
2021/08/04 11:03:35;;;;;;;2.67;1.75;;;21.50;99.90;;;;;;4970131;28;20318;-94
2021/08/04 11:06:11;;;;;;;2.70;1.95;;;21.50;99.50;;;;;;4990921;28;20195;-94
2021/08/04 11:08:40;;;;;;;3.10;1.65;;;21.40;99.50;;;;;;4972265;28;20286;-95
2021/08/04 11:11:37;;;;;;;3.10;1.90;;;21.50;99.90;;;;;;4977120;28;20189;-96
2021/08/04 11:14:35;;;;;;;2.05;1.75;;;21.50;99.90;;;;;;4969085;28;20589;-96
2021/08/04 11:17:01;;;;;;;2.08;1.75;;;21.40;99.90;;;;;;4976675;28;20181;-96
2021/08/04 11:19:34;;;;;;;2.53;1.77;;;21.40;99.90;;;;;;4966840;28;20224;-94
2021/08/04 11:22:22;;;;;;;1.92;1.60;;;21.30;99.90;;;;;;4975450;28;20187;-94
2021/08/04 11:25:04;;;;;;;1.70;1.58;;;21.30;99.90;;;;;;4964518;28;20232;-95
2021/08/04 11:27:37;;;;;;;1.95;1.50;;;21.30;99.90;;;;;;4976979;28;20188;-95
2021/08/04 11:30:04;;;;;;;2.42;1.83;;;21.30;99.90;;;;;;4969464;28;20231;-96
2021/08/04 11:32:35;;;;;;;2.65;1.90;;;21.20;99.90;;;;;;4976452;28;20189;-95
2021/08/04 11:35:21;;;;;;;3.85;1.80;;;21.20;99.90;;;;;;4971857;28;20235;-96
2021/08/04 11:37:49;;;;;;;2.70;1.50;;;21.20;99.90;;;;;;4977290;28;20180;-94
2021/08/04 11:40:15;;;;;;;2.15;1.60;;;21.20;99.90;;;;;;4951639;28;20220;-96
2021/08/04 11:42:43;;;;;;;3.13;1.80;;;21.20;99.90;;;;;;4978425;28;20199;-96
2021/08/04 11:45:15;;;;;;;2.10;1.90;;;21.20;99.90;;;;;;4969823;28;20283;-94
2021/08/04 11:47:50;;;;;;;2.08;1.73;;;21.20;99.90;;;;;;4979126;28;20181;-94
2021/08/04 11:50:51;;;;;;;1.88;1.55;;;21.20;99.90;;;;;;4969145;28;20216;-94
2021/08/04 11:53:17;;;;;;;2.80;1.92;;;21.30;99.90;;;;;;4969977;28;20234;-93
2021/08/04 11:55:46;;;;;;;3.53;1.92;;;21.30;99.90;;;;;;4992160;28;20616;-95
2021/08/04 11:58:12;;;;;;;4.40;1.55;;;21.30;99.90;;;;;;4970708;28;20207;-96
2021/08/04 12:00:48;;;;;;;2.75;1.77;;;21.30;99.90;;;;;;4978815;28;20192;-94
2021/08/04 12:03:25;;;;;;;2.65;2.08;;;21.40;99.90;;;;;;4967200;28;20638;-95
2021/08/04 12:06:13;;;;;;;2.45;1.63;;;21.30;99.90;;;;;;4978535;28;20815;-96
2021/08/04 12:08:39;;;;;;;4.18;1.67;;;21.40;99.90;;;;;;4974058;28;20227;-94
2021/08/04 12:11:19;;;;;;;3.75;2.10;;;21.50;99.90;;;;;;4971869;28;20200;-95
2021/08/04 12:14:04;;;;;;;4.32;2.10;;;21.70;99.90;;;;;;4958459;28;20238;-95
2021/08/04 12:16:45;;;;;;;1.88;1.70;;;21.80;99.90;;;;;;4964885;28;20212;-95
2021/08/04 12:19:31;;;;;;;4.68;1.88;;;22.10;99.90;;;;;;4951839;28;20232;-95
2021/08/04 12:22:01;;;;;;;2.03;1.70;;;22.30;99.90;;;;;;4961216;29;20480;-94
2021/08/04 12:25:16;;;;;;;2.15;1.85;;;22.50;99.90;;;;;;4952836;28;20264;-94
2021/08/04 12:27:51;;;;;;;2.03;1.55;;;22.60;99.40;;;;;;4948219;28;20273;-96
2021/08/04 12:30:40;;;;;;;3.30;1.60;;;22.70;99.70;;;;;;4949419;28;20231;-94
2021/08/04 12:33:16;;;;;;;1.58;1.48;;;22.70;99.70;;;;;;4955472;29;20181;-95
2021/08/04 12:36:09;;;;;;;4.20;1.63;;;22.50;98.30;;;;;;4951462;28;20231;-95
2021/08/04 12:38:47;;;;;;;3.33;1.50;;;22.50;98.60;;;;;;4949866;28;20196;-94
2021/08/04 12:41:19;;;;;;;3.05;1.60;;;22.50;99.30;;;;;;4957191;29;20292;-94
2021/08/04 12:43:45;;;;;;;2.33;1.70;;;22.50;98.40;;;;;;4949124;28;20189;-94
2021/08/04 12:46:33;;;;;;;1.63;1.52;;;22.50;97.50;;;;;;4955460;29;20200;-95
2021/08/04 12:49:00;;;;;;;3.60;1.50;;;22.50;98.40;;;;;;4950437;28;20189;-94
2021/08/04 12:51:29;;;;;;;2.15;1.60;;;22.60;97.90;;;;;;4954203;29;20221;-92
2021/08/04 12:54:05;;;;;;;2.08;1.60;;;22.60;98.00;;;;;;4954536;28;20215;-96
2021/08/04 12:56:37;;;;;;;1.67;1.38;;;22.50;97.50;;;;;;4974043;28;20678;-95
2021/08/04 12:59:15;;;;;;;2.13;1.50;;;22.70;98.60;;;;;;4967599;28;20193;-94
2021/08/04 13:01:46;;;;;;;7.55;1.73;;;22.70;98.70;;;;;;4974266;28;20198;-96
2021/08/04 13:04:15;;;;;;;2.10;1.40;;;22.90;98.10;;;;;;4966835;28;20204;-96
2021/08/04 13:07:17;;;;;;;2.08;1.58;;;23.10;97.30;;;;;;4997233;28;20192;-94
2021/08/04 13:09:52;;;;;;;2.90;1.58;;;23.20;97.40;;;;;;4973729;28;20230;-96
2021/08/04 13:12:36;;;;;;;2.72;1.33;;;23.30;97.70;;;;;;4979625;28;20320;-94
2021/08/04 13:15:17;;;;;;;2.58;1.50;;;23.40;97.10;;;;;;4972178;28;20238;-96
2021/08/04 13:17:58;;;;;;;3.92;1.50;;;23.40;96.60;;;;;;4980928;28;20220;-94
2021/08/04 13:20:35;;;;;;;2.25;1.45;;;23.30;96.90;;;;;;4975801;28;20713;-95
2021/08/04 13:23:13;;;;;;;5.45;1.40;;;23.30;96.30;;;;;;4980636;28;20176;-96
2021/08/04 13:25:56;;;;;;;3.08;1.50;;;23.30;96.30;;;;;;4973356;28;20250;-95
2021/08/04 13:28:41;;;;;;;4.50;1.58;;;23.30;96.90;;;;;;4979707;28;20650;-96